Time;durP1;ratioP1;P1;durP2;ratioP2;P2;SDS_P1;SDS_P2;PMS_P1;PMS_P2;Temp;Humidity;BMP_temperature;BMP_pressure;BME280_temperature;BME280_humidity;BME280_pressure;Samples;Min_cycle;Max_cycle;Signal;HPM_P1;HPM_P2
2021/10/14 00:01:54;;;;;;;26.00;21.05;;;;;;;13.37;53.45;101818.81;1738121;82;20951;-51
2021/10/14 00:04:20;;;;;;;27.70;20.90;;;;;;;13.34;53.36;101824.08;1735621;82;21440;-51
2021/10/14 00:06:48;;;;;;;26.15;21.02;;;;;;;13.33;53.29;101822.36;1735405;82;21011;-51
2021/10/14 00:09:14;;;;;;;26.87;21.15;;;;;;;13.29;53.27;101825.92;1734828;82;21011;-51
2021/10/14 00:11:41;;;;;;;26.02;19.62;;;;;;;13.26;53.34;101821.59;1735648;82;21010;-50
2021/10/14 00:14:08;;;;;;;27.98;21.77;;;;;;;13.24;53.35;101817.27;1736346;82;21074;-50
2021/10/14 00:16:34;;;;;;;26.40;20.75;;;;;;;13.23;53.47;101828.62;1738678;82;21475;-51
2021/10/14 00:19:01;;;;;;;27.58;21.37;;;;;;;13.21;53.37;101827.32;1738204;82;20985;-51
2021/10/14 00:21:27;;;;;;;24.02;20.55;;;;;;;13.19;53.38;101828.26;1736003;82;21007;-51
2021/10/14 00:23:54;;;;;;;26.62;21.55;;;;;;;13.19;53.41;101832.17;1737071;82;21499;-52
2021/10/14 00:26:20;;;;;;;25.82;20.15;;;;;;;13.18;53.48;101840.89;1738055;82;21013;-50
2021/10/14 00:28:47;;;;;;;24.18;20.15;;;;;;;13.17;53.55;101849.63;1738735;82;21014;-51
2021/10/14 00:31:13;;;;;;;25.95;21.05;;;;;;;13.15;53.50;101854.86;1737038;82;21023;-51
2021/10/14 00:33:40;;;;;;;28.30;21.57;;;;;;;13.15;53.43;101859.25;1735178;82;21018;-51
2021/10/14 00:36:07;;;;;;;24.98;20.57;;;;;;;13.14;53.34;101854.89;1735587;82;21031;-51
2021/10/14 00:38:33;;;;;;;26.15;20.40;;;;;;;13.12;53.49;101857.53;1735784;81;21065;-51
2021/10/14 00:41:01;;;;;;;23.32;19.60;;;;;;;13.10;53.36;101854.08;1731763;82;21030;-51
2021/10/14 00:43:27;;;;;;;26.48;20.70;;;;;;;13.08;53.55;101855.38;1737025;82;21089;-51
2021/10/14 00:45:54;;;;;;;21.77;19.17;;;;;;;13.08;53.43;101858.91;1737690;82;21034;-50
2021/10/14 00:48:21;;;;;;;24.52;20.20;;;;;;;13.05;53.39;101863.28;1738793;82;20983;-51
2021/10/14 00:50:47;;;;;;;24.67;19.70;;;;;;;13.04;53.40;101868.08;1738648;82;21070;-52
2021/10/14 00:53:13;;;;;;;23.60;19.52;;;;;;;13.02;53.38;101875.03;1735806;82;21648;-51
2021/10/14 00:55:40;;;;;;;23.47;19.32;;;;;;;13.01;53.19;101878.55;1713734;82;21062;-50
2021/10/14 00:58:07;;;;;;;24.15;19.62;;;;;;;12.98;53.38;101882.50;1748980;82;21509;-51
2021/10/14 01:00:34;;;;;;;26.68;20.88;;;;;;;12.97;53.39;101887.32;1734784;82;21034;-50
2021/10/14 01:03:01;;;;;;;25.65;19.37;;;;;;;12.94;53.35;101887.34;1748864;82;21030;-51
2021/10/14 01:05:28;;;;;;;21.75;18.30;;;;;;;12.92;53.16;101890.42;1742577;82;21078;-51
2021/10/14 01:07:54;;;;;;;24.37;19.57;;;;;;;12.90;53.03;101893.97;1737020;82;21518;-52
2021/10/14 01:10:21;;;;;;;26.15;19.73;;;;;;;12.87;53.03;101892.25;1737829;82;21049;-51
2021/10/14 01:12:49;;;;;;;24.57;20.40;;;;;;;12.86;53.17;101902.27;1738244;82;21019;-51
2021/10/14 01:15:26;;;;;;;23.70;18.67;;;;;;;12.83;53.15;101901.44;1738460;82;21006;-51
2021/10/14 01:17:56;;;;;;;25.00;20.37;;;;;;;12.81;53.17;101901.91;1691610;85;21090;-51
2021/10/14 01:20:25;;;;;;;23.30;19.15;;;;;;;12.78;53.23;101904.11;1686426;84;21046;-51
2021/10/14 01:22:51;;;;;;;25.52;20.20;;;;;;;12.76;53.16;101900.66;1692406;83;21556;-50
2021/10/14 01:25:18;;;;;;;24.43;19.05;;;;;;;12.74;53.15;101903.72;1692225;84;21047;-50
2021/10/14 01:27:46;;;;;;;22.60;18.17;;;;;;;12.73;53.19;101910.28;1692074;85;21030;-51
2021/10/14 01:30:13;;;;;;;25.08;19.05;;;;;;;12.69;53.36;101906.85;1692524;84;21070;-51
2021/10/14 01:32:39;;;;;;;23.30;18.23;;;;;;;12.66;53.21;101912.53;1692682;85;21117;-50
2021/10/14 01:35:07;;;;;;;22.75;17.07;;;;;;;12.61;53.01;101912.58;1692447;85;21071;-51
2021/10/14 01:37:34;;;;;;;20.95;18.07;;;;;;;12.57;53.12;101913.50;1691929;84;21078;-51
2021/10/14 01:40:00;;;;;;;21.77;18.52;;;;;;;12.54;53.29;101927.04;1692203;84;21054;-51
2021/10/14 01:42:27;;;;;;;24.07;18.35;;;;;;;12.54;53.55;101921.81;1692062;84;21022;-50
2021/10/14 01:44:54;;;;;;;25.57;18.10;;;;;;;12.53;53.34;101930.08;1700699;84;21086;-51
2021/10/14 01:47:20;;;;;;;22.62;17.98;;;;;;;12.52;53.32;101927.06;1701102;83;20999;-51
2021/10/14 01:49:47;;;;;;;22.20;17.92;;;;;;;12.52;53.38;101933.59;1701135;84;21022;-51
2021/10/14 01:52:14;;;;;;;22.40;17.50;;;;;;;12.50;53.43;101927.52;1701220;84;21570;-51
2021/10/14 01:54:41;;;;;;;18.23;15.90;;;;;;;12.52;53.41;101934.89;1701173;83;21050;-50
2021/10/14 01:57:07;;;;;;;21.68;17.02;;;;;;;12.51;53.21;101939.67;1701051;83;21049;-50
2021/10/14 01:59:34;;;;;;;21.70;16.77;;;;;;;12.49;53.18;101940.13;1701165;84;21578;-50
2021/10/14 02:02:01;;;;;;;21.02;15.68;;;;;;;12.49;53.28;101946.66;1701383;83;21062;-50
2021/10/14 02:04:27;;;;;;;24.57;17.77;;;;;;;12.51;53.31;101954.03;1701325;84;21038;-50
2021/10/14 02:06:54;;;;;;;20.95;16.42;;;;;;;12.53;53.41;101960.11;1701003;84;21050;-51
2021/10/14 02:09:21;;;;;;;20.65;16.57;;;;;;;12.55;53.31;101956.20;1701168;84;21073;-51
2021/10/14 02:11:48;;;;;;;21.68;16.75;;;;;;;12.55;53.13;101947.90;1701037;84;21090;-50
2021/10/14 02:14:15;;;;;;;24.00;16.75;;;;;;;12.53;52.82;101951.44;1720093;82;21074;-51
2021/10/14 02:16:41;;;;;;;24.52;17.40;;;;;;;12.50;52.72;101962.77;1737425;82;21090;-51
2021/10/14 02:19:08;;;;;;;22.67;17.80;;;;;;;12.47;52.80;101969.31;1744099;82;21470;-50
2021/10/14 02:21:35;;;;;;;21.00;17.80;;;;;;;12.48;52.88;101975.41;1741948;82;21073;-50
2021/10/14 02:24:03;;;;;;;22.90;16.42;;;;;;;12.47;53.09;101975.84;1742500;82;21011;-51
2021/10/14 02:26:31;;;;;;;22.45;17.35;;;;;;;12.47;53.00;101983.66;1739570;82;21006;-51
2021/10/14 02:28:58;;;;;;;20.27;17.32;;;;;;;12.45;53.05;101986.73;1744057;82;20999;-50
2021/10/14 02:31:24;;;;;;;24.85;17.52;;;;;;;12.43;53.14;101978.05;1743781;82;21474;-51
2021/10/14 02:33:51;;;;;;;23.18;16.82;;;;;;;12.43;53.23;101988.50;1742540;82;21038;-51
2021/10/14 02:36:17;;;;;;;22.07;16.42;;;;;;;12.43;53.30;101987.19;1740533;82;21037;-51
2021/10/14 02:38:44;;;;;;;21.48;16.10;;;;;;;12.43;53.25;101992.41;1738529;82;20986;-50
2021/10/14 02:41:11;;;;;;;19.05;16.07;;;;;;;12.42;53.19;101994.61;1741406;82;21002;-51
2021/10/14 02:43:37;;;;;;;18.70;15.40;;;;;;;12.43;53.12;102002.85;1737817;81;21113;-50
2021/10/14 02:46:04;;;;;;;18.17;15.18;;;;;;;12.44;53.27;102004.60;1730312;82;21106;-50
2021/10/14 02:48:32;;;;;;;20.60;15.45;;;;;;;12.44;53.17;102015.05;1729655;82;21027;-50
2021/10/14 02:50:59;;;;;;;17.70;15.78;;;;;;;12.46;53.31;102015.02;1727410;82;21023;-50
2021/10/14 02:53:25;;;;;;;19.67;14.90;;;;;;;12.47;53.37;102016.30;1726395;82;20992;-52
2021/10/14 02:55:52;;;;;;;22.20;15.38;;;;;;;12.48;53.23;102021.96;1730445;82;21056;-50
2021/10/14 02:58:19;;;;;;;23.07;16.02;;;;;;;12.47;52.93;102014.99;1730147;82;21059;-50
2021/10/14 03:00:45;;;;;;;20.90;15.13;;;;;;;12.47;52.70;102019.38;1728934;82;21007;-50
2021/10/14 03:03:12;;;;;;;24.65;15.25;;;;;;;12.46;52.61;102022.41;1727254;82;21050;-50
2021/10/14 03:05:38;;;;;;;19.17;14.98;;;;;;;12.47;52.59;102022.83;1727428;82;20960;-50
2021/10/14 03:08:05;;;;;;;21.62;15.60;;;;;;;12.44;52.35;102025.48;1727491;82;21082;-50
2021/10/14 03:10:32;;;;;;;19.45;14.50;;;;;;;12.43;52.55;102031.56;1727692;82;21062;-52
2021/10/14 03:12:58;;;;;;;21.05;15.60;;;;;;;12.40;52.51;102026.39;1729179;82;21054;-51
2021/10/14 03:15:25;;;;;;;19.02;14.68;;;;;;;12.39;52.46;102032.47;1726257;82;21578;-52
2021/10/14 03:17:51;;;;;;;22.35;16.05;;;;;;;12.36;52.39;102022.08;1730279;82;20979;-50
2021/10/14 03:20:18;;;;;;;20.05;15.10;;;;;;;12.33;52.42;102027.31;1730567;82;21423;-51
2021/10/14 03:22:45;;;;;;;18.30;15.00;;;;;;;12.29;52.27;102023.00;1723878;82;21031;-50
2021/10/14 03:25:11;;;;;;;20.90;15.95;;;;;;;12.25;52.25;102031.73;1727348;82;21551;-50
2021/10/14 03:27:39;;;;;;;21.15;15.45;;;;;;;12.21;52.49;102032.64;1726975;82;21043;-50
2021/10/14 03:30:07;;;;;;;19.10;15.65;;;;;;;12.18;52.82;102037.44;1729168;82;21014;-50
2021/10/14 03:32:34;;;;;;;17.35;14.90;;;;;;;12.17;52.90;102038.77;1730598;82;21025;-50
2021/10/14 03:35:01;;;;;;;20.27;14.38;;;;;;;12.16;52.87;102041.80;1730484;82;21523;-50
2021/10/14 03:37:28;;;;;;;21.50;16.30;;;;;;;12.16;52.90;102045.72;1728282;82;21043;-51
2021/10/14 03:39:55;;;;;;;22.58;15.40;;;;;;;12.16;52.97;102053.97;1728746;82;21011;-51
2021/10/14 03:42:21;;;;;;;18.05;15.18;;;;;;;12.14;52.99;102053.13;1730119;82;21011;-51
2021/10/14 03:44:49;;;;;;;20.27;16.45;;;;;;;12.13;52.95;102060.54;1730265;82;21071;-50
2021/10/14 03:47:16;;;;;;;21.75;15.38;;;;;;;12.13;52.81;102057.93;1727109;82;21027;-50
2021/10/14 03:49:43;;;;;;;20.35;15.45;;;;;;;12.12;52.83;102057.05;1727661;82;20987;-50
2021/10/14 03:52:10;;;;;;;20.77;15.60;;;;;;;12.11;52.81;102060.56;1727635;82;21047;-50
2021/10/14 03:54:37;;;;;;;19.95;14.60;;;;;;;12.10;52.87;102065.77;1727157;82;21037;-50
2021/10/14 03:57:03;;;;;;;18.70;14.25;;;;;;;12.10;53.14;102065.77;1728736;82;21015;-51
2021/10/14 03:59:30;;;;;;;20.88;14.50;;;;;;;12.09;53.06;102064.05;1730534;82;20987;-51
2021/10/14 04:01:58;;;;;;;22.05;14.33;;;;;;;12.08;53.04;102075.34;1730366;82;21578;-51
2021/10/14 04:04:25;;;;;;;17.32;14.23;;;;;;;12.06;52.98;102071.88;1728689;82;21070;-51
2021/10/14 04:06:51;;;;;;;19.95;14.85;;;;;;;12.05;52.95;102066.25;1728839;82;20988;-51
2021/10/14 04:09:18;;;;;;;18.25;14.87;;;;;;;12.03;52.83;102074.09;1729857;82;21002;-51
2021/10/14 04:11:45;;;;;;;17.15;13.90;;;;;;;12.02;52.87;102071.05;1730562;82;21027;-50
2021/10/14 04:14:12;;;;;;;19.27;14.50;;;;;;;12.02;52.97;102081.91;1730212;82;22314;-51
2021/10/14 04:16:38;;;;;;;16.45;13.20;;;;;;;11.99;52.88;102077.58;1719483;82;21023;-50
2021/10/14 04:19:04;;;;;;;19.67;14.35;;;;;;;11.96;53.09;102078.05;1724327;82;21534;-51
2021/10/14 04:21:36;;;;;;;17.60;13.28;;;;;;;11.93;53.17;102075.47;1730694;82;21054;-50
2021/10/14 04:24:04;;;;;;;18.20;13.40;;;;;;;11.90;53.30;102075.47;1730641;82;21022;-50
2021/10/14 04:26:30;;;;;;;16.67;13.62;;;;;;;11.86;53.47;102073.77;1729049;82;20979;-50
2021/10/14 04:28:56;;;;;;;15.88;13.35;;;;;;;11.86;53.68;102076.37;1727619;82;21000;-50
2021/10/14 04:31:23;;;;;;;18.37;13.93;;;;;;;11.84;53.81;102080.73;1727268;82;20959;-51
2021/10/14 04:33:49;;;;;;;20.85;14.75;;;;;;;11.85;54.06;102089.00;1727915;82;21011;-51
2021/10/14 04:36:18;;;;;;;18.20;14.40;;;;;;;11.86;54.18;102089.41;1727586;82;21030;-51
2021/10/14 04:38:44;;;;;;;18.52;14.15;;;;;;;11.86;54.20;102094.63;1728844;82;21030;-50
2021/10/14 04:41:12;;;;;;;18.70;13.85;;;;;;;11.86;54.34;102095.93;1728728;82;21038;-50
2021/10/14 04:43:40;;;;;;;17.60;13.70;;;;;;;11.88;54.55;102099.39;1728517;82;21042;-51
2021/10/14 04:46:07;;;;;;;16.70;12.82;;;;;;;11.91;54.66;102088.50;1729668;82;21030;-51
2021/10/14 04:48:34;;;;;;;14.40;12.90;;;;;;;11.91;54.81;102091.56;1730601;82;20983;-50
2021/10/14 04:51:00;;;;;;;16.62;13.10;;;;;;;11.88;55.08;102098.97;1730484;82;21027;-51
2021/10/14 04:53:27;;;;;;;18.85;13.85;;;;;;;11.84;55.53;102096.38;1728427;82;21054;-51
2021/10/14 04:55:54;;;;;;;18.73;12.70;;;;;;;11.81;55.93;102099.02;1727225;82;21079;-51
2021/10/14 04:58:21;;;;;;;16.05;12.68;;;;;;;11.80;56.29;102095.97;1727472;82;21027;-50
2021/10/14 05:00:48;;;;;;;18.75;13.90;;;;;;;11.80;56.44;102102.48;1727317;82;21082;-51
2021/10/14 05:03:15;;;;;;;15.55;12.47;;;;;;;11.80;56.40;102109.88;1727329;82;21042;-51
2021/10/14 05:05:41;;;;;;;18.65;13.10;;;;;;;11.81;56.76;102103.77;1729842;82;21023;-50
2021/10/14 05:08:08;;;;;;;16.62;13.43;;;;;;;11.83;56.93;102110.31;1730340;82;21570;-51
2021/10/14 05:10:34;;;;;;;15.50;12.37;;;;;;;11.84;56.84;102114.63;1729127;82;22113;-50
2021/10/14 05:13:02;;;;;;;15.80;13.20;;;;;;;11.87;57.02;102122.45;1727906;82;21054;-50
2021/10/14 05:15:30;;;;;;;17.52;13.15;;;;;;;11.89;56.88;102136.36;1726460;82;21019;-51
2021/10/14 05:17:57;;;;;;;16.52;13.65;;;;;;;11.91;57.07;102137.21;1735793;82;21557;-53
2021/10/14 05:20:24;;;;;;;20.60;13.38;;;;;;;11.94;56.87;102148.91;1730291;82;21026;-50
2021/10/14 05:22:51;;;;;;;17.50;13.43;;;;;;;11.95;56.93;102148.06;1729731;82;21019;-50
2021/10/14 05:25:18;;;;;;;16.40;13.93;;;;;;;11.98;56.91;102151.94;1727752;82;21007;-52
2021/10/14 05:27:44;;;;;;;16.80;13.18;;;;;;;11.99;56.91;102148.47;1729156;82;21463;-52
2021/10/14 05:30:11;;;;;;;17.25;12.85;;;;;;;12.01;56.99;102159.77;1730167;82;20990;-48
2021/10/14 05:32:38;;;;;;;15.05;12.55;;;;;;;12.03;57.13;102165.84;1730300;82;21059;-52
2021/10/14 05:35:06;;;;;;;16.77;13.38;;;;;;;12.03;56.99;102172.36;1729710;82;21075;-51
2021/10/14 05:37:33;;;;;;;16.10;13.45;;;;;;;12.03;56.80;102171.93;1727455;82;21515;-51
2021/10/14 05:40:02;;;;;;;16.73;12.78;;;;;;;12.05;56.55;102181.05;1727007;82;21507;-50
2021/10/14 05:42:29;;;;;;;15.68;12.68;;;;;;;12.06;56.05;102186.67;1727581;82;21042;-50
2021/10/14 05:44:57;;;;;;;17.52;12.55;;;;;;;12.07;55.91;102182.78;1720948;82;21526;-50
2021/10/14 05:47:23;;;;;;;16.12;12.45;;;;;;;12.08;56.00;102179.70;1728519;82;21606;-50
2021/10/14 05:49:50;;;;;;;16.20;12.75;;;;;;;12.11;56.31;102191.45;1727500;82;21023;-50
2021/10/14 05:52:16;;;;;;;17.60;13.75;;;;;;;12.15;56.40;102204.91;1727026;82;21496;-49
2021/10/14 05:54:43;;;;;;;15.18;13.03;;;;;;;12.20;56.16;102208.34;1727911;82;21023;-51
2021/10/14 05:57:10;;;;;;;16.70;12.70;;;;;;;12.27;56.12;102199.62;1727156;82;20991;-50
2021/10/14 05:59:37;;;;;;;16.25;13.08;;;;;;;12.37;55.81;102206.51;1729727;82;21050;-50
2021/10/14 06:02:04;;;;;;;15.93;12.60;;;;;;;12.46;55.67;102212.99;1730324;82;21070;-50
2021/10/14 06:04:32;;;;;;;15.98;12.15;;;;;;;12.57;55.25;102222.91;1726021;82;21578;-51
2021/10/14 06:06:58;;;;;;;18.10;12.75;;;;;;;12.67;54.95;102226.34;1730672;82;20996;-52
2021/10/14 06:09:25;;;;;;;23.55;13.90;;;;;;;12.72;54.60;102234.56;1728047;82;21503;-51
2021/10/14 06:11:53;;;;;;;14.85;12.58;;;;;;;12.79;54.41;102245.84;1727150;82;21085;-50
2021/10/14 06:14:19;;;;;;;16.37;12.13;;;;;;;12.86;54.22;102245.78;1717878;82;21534;-50
2021/10/14 06:16:46;;;;;;;18.60;12.95;;;;;;;12.94;53.88;102239.20;1730291;82;21067;-51
2021/10/14 06:19:13;;;;;;;18.77;12.05;;;;;;;13.00;53.80;102242.61;1726789;82;21065;-50
2021/10/14 06:21:41;;;;;;;15.55;12.47;;;;;;;13.09;53.71;102241.70;1727760;82;20991;-50
2021/10/14 06:24:08;;;;;;;16.95;12.33;;;;;;;13.16;53.67;102237.30;1727194;82;21071;-50
2021/10/14 06:26:34;;;;;;;16.17;12.15;;;;;;;13.23;53.60;102241.60;1727153;82;21079;-50
2021/10/14 06:29:01;;;;;;;16.50;12.33;;;;;;;13.29;53.61;102244.16;1728303;82;21011;-51
2021/10/14 06:31:27;;;;;;;15.18;12.45;;;;;;;13.33;53.53;102247.17;1730319;82;21542;-51
2021/10/14 06:33:55;;;;;;;18.35;12.58;;;;;;;13.37;53.38;102250.19;1728553;82;21058;-50
2021/10/14 06:36:21;;;;;;;17.92;12.80;;;;;;;13.41;53.44;102253.19;1728943;82;21063;-50
2021/10/14 06:38:48;;;;;;;19.32;12.68;;;;;;;13.46;53.42;102255.30;1729572;82;21006;-50
2021/10/14 06:41:15;;;;;;;16.50;12.60;;;;;;;13.51;53.34;102264.86;1730313;82;21043;-50
2021/10/14 06:43:42;;;;;;;14.93;12.35;;;;;;;13.53;53.09;102264.83;1714282;82;21018;-51
2021/10/14 06:46:10;;;;;;;15.00;13.05;;;;;;;13.55;53.07;102266.56;1736630;82;21061;-51
2021/10/14 06:48:36;;;;;;;16.42;11.90;;;;;;;13.55;53.08;102258.72;1738287;82;21557;-50
2021/10/14 06:51:03;;;;;;;15.18;12.28;;;;;;;13.56;53.35;102264.82;1738470;82;21046;-50
2021/10/14 06:53:31;;;;;;;14.23;12.60;;;;;;;13.54;53.24;102269.20;1736811;82;21011;-50
2021/10/14 06:55:59;;;;;;;20.37;13.38;;;;;;;13.50;53.42;102277.92;1735028;82;21514;-50
2021/10/14 06:58:26;;;;;;;17.15;12.78;;;;;;;13.47;53.52;102274.05;1735624;82;21066;-51
2021/10/14 07:00:52;;;;;;;16.87;13.38;;;;;;;13.43;53.82;102271.04;1735236;82;21048;-50
2021/10/14 07:03:19;;;;;;;17.52;12.78;;;;;;;13.39;53.88;102278.05;1735375;82;21479;-50
2021/10/14 07:05:45;;;;;;;17.65;13.50;;;;;;;13.35;54.09;102280.70;1737567;81;21042;-50
2021/10/14 07:08:13;;;;;;;15.98;13.25;;;;;;;13.30;54.10;102278.55;1738261;82;21027;-51
2021/10/14 07:10:44;;;;;;;20.35;13.70;;;;;;;13.26;54.07;102286.00;1738069;82;21454;-50
2021/10/14 07:13:09;;;;;;;15.45;12.43;;;;;;;13.24;54.37;102292.98;1731766;82;21090;-51
2021/10/14 07:15:38;;;;;;;14.53;12.98;;;;;;;13.25;54.62;102281.67;1736782;82;21482;-50
2021/10/14 07:18:04;;;;;;;19.70;13.30;;;;;;;13.27;54.88;102288.59;1737982;82;21006;-51
2021/10/14 07:20:30;;;;;;;13.85;12.37;;;;;;;13.32;54.99;102291.17;1736367;82;21070;-50
2021/10/14 07:22:57;;;;;;;18.27;13.85;;;;;;;13.36;54.69;102287.22;1727290;82;21562;-51
2021/10/14 07:25:24;;;;;;;16.95;12.93;;;;;;;13.40;54.69;102278.89;1738823;82;21019;-50
2021/10/14 07:27:51;;;;;;;16.50;12.13;;;;;;;13.42;54.55;102277.13;1737641;82;21065;-50
2021/10/14 07:30:18;;;;;;;14.10;12.28;;;;;;;13.44;54.13;102283.21;1735855;82;21039;-51
2021/10/14 07:32:45;;;;;;;16.00;12.95;;;;;;;13.46;54.01;102302.38;1736680;82;21039;-51
2021/10/14 07:35:11;;;;;;;19.35;12.00;;;;;;;13.46;53.72;102320.67;1733881;82;21486;-50
2021/10/14 07:37:39;;;;;;;16.50;13.18;;;;;;;13.45;53.90;102330.72;1739360;82;21050;-50
2021/10/14 07:40:08;;;;;;;16.00;13.60;;;;;;;13.46;54.12;102332.44;1737161;82;21475;-51
2021/10/14 07:42:34;;;;;;;16.60;12.80;;;;;;;13.48;54.22;102342.02;1728795;82;21041;-52
2021/10/14 07:45:02;;;;;;;16.40;14.18;;;;;;;13.53;54.17;102345.91;1733009;82;21498;-51
2021/10/14 07:47:29;;;;;;;19.55;14.45;;;;;;;13.52;54.61;102345.46;1730169;82;21030;-50
2021/10/14 07:49:56;;;;;;;21.75;15.28;;;;;;;13.52;55.28;102342.41;1726876;82;21525;-51
2021/10/14 07:52:23;;;;;;;19.55;14.85;;;;;;;13.64;55.13;102337.53;1728987;82;20992;-50
2021/10/14 07:54:49;;;;;;;18.40;15.08;;;;;;;13.68;55.35;102337.47;1734052;82;21035;-51
2021/10/14 07:57:16;;;;;;;18.92;14.65;;;;;;;13.73;55.06;102342.66;1732928;82;21011;-50
2021/10/14 07:59:44;;;;;;;18.35;13.83;;;;;;;13.77;55.02;102332.59;1725619;82;21081;-51
2021/10/14 08:02:11;;;;;;;17.75;14.18;;;;;;;13.81;55.16;102332.98;1730285;82;21043;-52
2021/10/14 08:04:38;;;;;;;17.50;14.58;;;;;;;13.84;55.37;102339.52;1736236;82;21062;-51
2021/10/14 08:07:04;;;;;;;18.30;15.55;;;;;;;13.90;55.50;102336.83;1730075;82;20984;-50
2021/10/14 08:09:31;;;;;;;18.15;14.80;;;;;;;13.94;55.73;102339.84;1730814;82;21015;-51
2021/10/14 08:11:59;;;;;;;16.07;13.68;;;;;;;13.99;55.62;102334.13;1729235;82;21045;-51
2021/10/14 08:14:26;;;;;;;17.57;13.55;;;;;;;14.04;55.50;102331.00;1729621;82;21557;-54
2021/10/14 08:16:53;;;;;;;16.42;13.00;;;;;;;14.10;55.26;102337.48;1725475;82;21498;-50
2021/10/14 08:19:20;;;;;;;17.60;13.32;;;;;;;14.12;55.03;102335.70;1730007;82;21038;-50
2021/10/14 08:21:47;;;;;;;17.05;13.88;;;;;;;14.16;54.58;102343.95;1734643;82;21050;-50
2021/10/14 08:24:13;;;;;;;18.82;14.03;;;;;;;14.17;54.64;102344.39;1734461;82;21065;-51
2021/10/14 08:26:40;;;;;;;18.10;14.68;;;;;;;14.20;54.35;102345.64;1730455;82;21035;-49
2021/10/14 08:29:06;;;;;;;16.60;13.53;;;;;;;14.23;54.39;102354.79;1733167;82;20986;-49
2021/10/14 08:31:33;;;;;;;19.42;14.90;;;;;;;14.27;54.41;102355.18;1729526;82;21066;-51
2021/10/14 08:34:02;;;;;;;16.60;13.45;;;;;;;14.29;54.43;102353.88;1732374;82;21043;-51
2021/10/14 08:36:28;;;;;;;15.95;13.60;;;;;;;14.31;54.72;102354.29;1731823;82;21004;-51
2021/10/14 08:38:55;;;;;;;18.60;14.25;;;;;;;14.34;54.90;102350.31;1729715;82;21063;-52
2021/10/14 08:41:21;;;;;;;17.57;13.50;;;;;;;14.36;54.84;102348.53;1728934;82;20947;-51
2021/10/14 08:43:48;;;;;;;16.40;14.60;;;;;;;14.37;54.75;102348.98;1724045;82;21692;-51
2021/10/14 08:46:15;;;;;;;21.02;14.98;;;;;;;14.39;54.82;102353.75;1724103;82;21058;-51
2021/10/14 08:48:43;;;;;;;24.37;15.45;;;;;;;14.42;55.09;102349.80;1737599;82;21558;-53
2021/10/14 08:51:09;;;;;;;21.35;14.85;;;;;;;14.45;54.96;102356.30;1728489;82;21007;-51
2021/10/14 08:53:37;;;;;;;23.75;15.10;;;;;;;14.47;55.09;102360.20;1731682;82;21030;-52
2021/10/14 08:56:05;;;;;;;28.83;15.75;;;;;;;14.51;55.00;102369.31;1732052;82;21468;-51
2021/10/14 08:58:32;;;;;;;25.12;15.10;;;;;;;14.56;55.36;102364.90;1734090;82;21015;-54
2021/10/14 09:01:11;;;;;;;23.02;15.28;;;;;;;14.63;55.15;102363.07;1721256;82;21055;-51
2021/10/14 09:03:48;;;;;;;22.73;15.65;;;;;;;14.68;55.05;102368.66;1726670;82;21515;-52
2021/10/14 09:06:16;;;;;;;24.27;15.63;;;;;;;14.74;54.77;102373.38;1725068;82;21007;-52
2021/10/14 09:08:51;;;;;;;23.85;15.32;;;;;;;14.76;54.35;102367.67;1732376;82;21015;-51
2021/10/14 09:11:24;;;;;;;22.40;14.25;;;;;;;14.79;54.29;102365.03;1729851;82;21022;-51
2021/10/14 09:13:53;;;;;;;23.45;14.30;;;;;;;14.80;53.95;102365.44;1725652;82;20983;-49
2021/10/14 09:16:38;;;;;;;23.18;14.55;;;;;;;14.77;53.98;102361.56;1727391;82;20975;-56
2021/10/14 09:19:18;;;;;;;18.98;13.48;;;;;;;14.77;53.94;102360.26;1734760;82;21613;-51
2021/10/14 09:21:51;;;;;;;22.07;12.95;;;;;;;14.76;53.74;102354.14;1730018;82;21078;-51
2021/10/14 09:24:28;;;;;;;25.20;13.53;;;;;;;14.76;53.75;102355.89;1678031;85;21013;-52
2021/10/14 09:26:56;;;;;;;18.82;13.22;;;;;;;14.77;53.47;102349.77;1673372;85;21598;-50
2021/10/14 09:29:25;;;;;;;17.07;12.95;;;;;;;14.77;53.14;102349.77;1678936;85;21504;-52
2021/10/14 09:32:02;;;;;;;16.77;12.70;;;;;;;14.78;53.25;102337.08;1676242;85;20995;-53
2021/10/14 09:34:38;;;;;;;18.98;14.35;;;;;;;14.79;53.38;102329.66;1610179;88;21568;-50
2021/10/14 09:37:18;;;;;;;18.77;13.22;;;;;;;14.82;53.52;102327.84;1590404;90;21070;-51
2021/10/14 09:40:00;;;;;;;16.95;13.70;;;;;;;14.86;53.65;102337.39;1621045;88;21142;-51
2021/10/14 09:42:57;;;;;;;14.43;11.50;;;;;;;14.89;53.64;102335.19;1583801;89;21056;-52
2021/10/14 09:45:28;;;;;;;16.45;12.85;;;;;;;14.92;53.99;102349.57;1614429;88;21066;-52
2021/10/14 09:50:43;;;;;;;15.25;12.23;;;;;;;15.02;53.91;102377.38;1525421;94;21125;-51
2021/10/14 09:53:14;;;;;;;15.80;12.40;;;;;;;15.07;53.31;102380.78;1506806;93;21189;-51
2021/10/14 09:55:41;;;;;;;;;;;;;;;15.10;53.18;102379.45;1384579;103;21165;-52
2021/10/14 09:58:08;;;;;;;13.08;10.60;;;;;;;15.12;53.05;102382.91;1379967;102;20139;-51
2021/10/14 10:00:37;;;;;;;11.10;9.50;;;;;;;15.13;52.91;102383.31;1377084;102;21137;-50
2021/10/14 10:03:07;;;;;;;9.83;8.58;;;;;;;15.13;52.30;102382.00;1397437;101;21103;-51
2021/10/14 10:05:35;;;;;;;11.05;8.63;;;;;;;15.14;51.87;102377.20;1355747;106;21144;-50
2021/10/14 10:08:08;;;;;;;11.45;8.55;;;;;;;15.14;51.03;102378.51;1350780;106;21124;-50
2021/10/14 10:10:36;;;;;;;8.53;7.75;;;;;;;15.15;50.83;102371.05;1346615;106;21185;-51
2021/10/14 10:13:04;;;;;;;10.75;7.92;;;;;;;15.16;50.73;102368.42;1374972;104;21664;-50
2021/10/14 10:15:44;;;;;;;9.80;8.18;;;;;;;15.18;50.51;102369.70;1375871;104;21609;-50
2021/10/14 10:18:37;;;;;;;9.15;8.25;;;;;;;15.21;50.23;102353.91;1376069;104;21186;-50
2021/10/14 10:21:06;;;;;;;9.50;8.20;;;;;;;15.25;50.58;102354.31;1376142;102;21124;-50
2021/10/14 10:23:48;;;;;;;8.10;7.30;;;;;;;15.33;50.08;102358.52;1376058;104;21152;-51
2021/10/14 10:26:39;;;;;;;10.32;7.47;;;;;;;15.39;49.85;102356.27;1374743;102;21181;-49
2021/10/14 10:29:17;;;;;;;6.87;5.65;;;;;;;15.45;49.46;102362.76;1370542;104;21167;-49
2021/10/14 10:31:55;;;;;;;8.30;5.78;;;;;;;15.50;48.32;102363.53;1375697;102;21096;-50
2021/10/14 10:34:44;;;;;;;7.50;6.70;;;;;;;15.53;47.54;102359.55;1376003;104;21164;-52
2021/10/14 10:40:22;;;;;;;7.22;5.70;;;;;;;15.67;47.54;102360.18;1362693;104;21634;-51
2021/10/14 10:43:04;;;;;;;9.25;6.08;;;;;;;15.73;46.97;102364.02;1365823;104;21130;-51
2021/10/14 10:45:54;;;;;;;6.42;5.47;;;;;;;15.79;46.10;102355.16;1346666;104;21132;-50
2021/10/14 10:51:09;;;;;;;7.25;6.28;;;;;;;15.83;45.53;102361.64;1312056;108;21180;-50
2021/10/14 10:53:42;;;;;;;9.43;7.05;;;;;;;15.86;45.60;102370.79;1304076;108;21160;-51
2021/10/14 10:56:30;;;;;;;9.18;7.17;;;;;;;15.88;45.99;102358.94;1319722;106;21216;-51
2021/10/14 10:58:58;;;;;;;8.03;6.28;;;;;;;15.90;46.52;102356.71;1331679;106;21698;-52
2021/10/14 11:01:24;;;;;;;9.03;7.03;;;;;;;15.92;46.72;102352.30;1335350;103;21175;-49
2021/10/14 11:03:59;;;;;;;7.58;6.65;;;;;;;15.93;46.62;102354.02;1386385;103;21734;-51
2021/10/14 11:06:27;;;;;;;7.22;6.53;;;;;;;15.94;47.18;102354.45;1348308;105;21227;-50
2021/10/14 11:09:00;;;;;;;7.33;6.60;;;;;;;15.98;47.49;102363.13;1351458;105;21729;-50
2021/10/14 11:11:26;;;;;;;7.60;6.35;;;;;;;16.04;47.33;102362.56;1346409;106;21703;-48
2021/10/14 11:13:54;;;;;;;7.53;6.03;;;;;;;16.08;47.00;102361.61;1333637;106;21144;-51
2021/10/14 11:16:24;;;;;;;8.45;6.28;;;;;;;16.15;46.39;102363.24;1348292;106;21176;-49
2021/10/14 11:18:52;;;;;;;6.40;5.80;;;;;;;16.21;46.50;102365.75;1350169;105;21160;-49
2021/10/14 11:21:21;;;;;;;7.22;5.95;;;;;;;16.24;46.30;102358.23;1348281;105;21153;-49
2021/10/14 11:23:54;;;;;;;8.93;6.28;;;;;;;16.25;46.42;102359.53;1348108;106;21146;-50